logo
Rechercher aéroport 
image banner adimage banner adimage banner ad
image banner ad

LTBN - Kutahya

Situé à Kutahya, Turkey

ICAO - LTBN, IATA -

Données fournies par Airmate  

Information générale

Coordonnées: N39°25'36" E30°1'1"
Élévation : 3026 feet MSL.
Variation magnétique : 4.8° East
Voir autres Aéroports à Kütahya

Données opérationnelles

Special qualification required
Heure actuelle UTC:
Heure actuelle locale:
Météo
TAF: TAF LTBN 061340Z 0615/0624 35014KT 6000 -SN SCT010 BKN025 OVC080 TEMPO 0615/0619 35018G30KT 1000 BLSN
Voir NOTAMs / SUP AIP / TFR affectant cet aéroport [VIEW]
Fréquences de communication: [VIEW]

Pistes:

Identifiant RWYQFULongueur (ft)Largeur (ft)SurfaceLDA (ft)
15159°4954138ASPH
33339°4954138ASPH

Coordonnées de l'aéroport

Adresse: Kutahya Turkey

Vue satellite de LTBN